createdAt,value
2023-10-23T00:01:42.337Z,98484.72
2023-10-23T00:04:10.879Z,98484.31
2023-10-23T00:06:38.070Z,98491.47
2023-10-23T00:09:05.464Z,98486.97
2023-10-23T00:11:33.051Z,98485.94
2023-10-23T00:14:00.819Z,98489.53
2023-10-23T00:16:28.016Z,98490.47
2023-10-23T00:18:55.717Z,98484.50
2023-10-23T00:21:22.899Z,98487.97
2023-10-23T00:23:51.017Z,98489.03
2023-10-23T00:26:18.696Z,98496.38
2023-10-23T00:28:46.174Z,98492.09
2023-10-23T00:31:13.197Z,98492.91
2023-10-23T00:33:41.193Z,98496.69
2023-10-23T00:36:08.605Z,98497.69
2023-10-23T00:38:35.904Z,98495.25
2023-10-23T00:41:02.865Z,98495.25
2023-10-23T00:43:30.137Z,98491.56
2023-10-23T00:46:01.567Z,98484.56
2023-10-23T00:48:29.590Z,98489.00
2023-10-23T00:51:02.347Z,98493.44
2023-10-23T00:53:37.597Z,98489.06
2023-10-23T00:56:07.595Z,98490.03
2023-10-23T00:58:40.784Z,98499.06
2023-10-23T01:01:14.378Z,98497.28
2023-10-23T01:03:44.034Z,98507.88
2023-10-23T01:06:14.255Z,98505.38
2023-10-23T01:08:44.306Z,98505.47
2023-10-23T01:11:11.480Z,98505.63
2023-10-23T01:13:39.942Z,98506.63
2023-10-23T01:16:06.906Z,98513.72
2023-10-23T01:18:34.496Z,98499.72
2023-10-23T01:21:01.436Z,98499.81
2023-10-23T01:23:35.715Z,98499.88
2023-10-23T01:26:03.119Z,98505.59
2023-10-23T01:28:30.533Z,98500.22
2023-10-23T01:30:57.582Z,98496.56
2023-10-23T01:33:25.656Z,98496.72
2023-10-23T01:35:52.776Z,98502.78
2023-10-23T01:38:20.047Z,98496.78
2023-10-23T01:40:47.049Z,98495.94
2023-10-23T01:43:14.437Z,98499.44
2023-10-23T01:45:41.509Z,98501.25
2023-10-23T01:48:08.900Z,98509.19
2023-10-23T01:50:36.056Z,98514.38
2023-10-23T01:53:04.005Z,98521.56
2023-10-23T01:55:31.101Z,98519.84
2023-10-23T01:57:59.097Z,98513.09
2023-10-23T02:00:26.819Z,98512.41
2023-10-23T02:02:55.043Z,98523.06
2023-10-23T02:05:22.097Z,98525.00
2023-10-23T02:07:49.339Z,98512.63
2023-10-23T02:10:16.313Z,98508.19
2023-10-23T02:12:43.792Z,98516.28
2023-10-23T02:15:11.963Z,98512.09
2023-10-23T02:17:39.626Z,98513.09
2023-10-23T02:20:07.743Z,98516.78
2023-10-23T02:22:35.734Z,98520.50
2023-10-23T02:25:02.720Z,98522.50
2023-10-23T02:27:32.742Z,98520.66
2023-10-23T02:29:59.957Z,98526.03
2023-10-23T02:32:27.164Z,98531.25
2023-10-23T02:34:54.766Z,98525.88
2023-10-23T02:37:22.603Z,98530.97
2023-10-23T02:39:49.756Z,98530.28
2023-10-23T02:42:17.003Z,98536.91
2023-10-23T02:44:45.100Z,98537.22
2023-10-23T02:47:12.316Z,98532.72
2023-10-23T02:49:39.711Z,98542.03
2023-10-23T02:52:07.096Z,98540.00
2023-10-23T02:54:34.083Z,98536.44
2023-10-23T02:57:01.400Z,98540.72
2023-10-23T02:59:28.439Z,98545.00
2023-10-23T03:01:56.475Z,98544.03
2023-10-23T03:04:23.624Z,98557.19
2023-10-23T03:06:51.571Z,98557.25
2023-10-23T03:09:18.817Z,98556.25
2023-10-23T03:11:46.024Z,98555.69
2023-10-23T03:14:12.892Z,98565.53
2023-10-23T03:16:40.174Z,98572.69
2023-10-23T03:19:07.157Z,98568.50
2023-10-23T03:21:34.523Z,98569.28
2023-10-23T03:24:01.570Z,98570.22
2023-10-23T03:26:29.394Z,98562.81
2023-10-23T03:28:57.002Z,98557.28
2023-10-23T03:31:24.485Z,98558.91
2023-10-23T03:33:53.344Z,98558.91
2023-10-23T03:36:20.732Z,98562.41
2023-10-23T03:38:47.742Z,98565.22
2023-10-23T03:41:14.988Z,98563.56
2023-10-23T03:43:42.046Z,98569.28
2023-10-23T03:46:09.431Z,98570.28
2023-10-23T03:48:37.164Z,98568.34
2023-10-23T03:51:05.281Z,98573.88
2023-10-23T03:53:32.322Z,98576.81
2023-10-23T03:55:59.591Z,98573.38
2023-10-23T03:58:26.642Z,98571.53
2023-10-23T04:00:55.525Z,98569.09
2023-10-23T04:03:23.071Z,98575.56
2023-10-23T04:05:50.765Z,98562.41
2023-10-23T04:08:18.031Z,98563.25
2023-10-23T04:10:50.024Z,98564.13
2023-10-23T04:13:18.031Z,98562.28
2023-10-23T04:15:59.873Z,98556.50
2023-10-23T04:18:27.329Z,98557.66
2023-10-23T04:21:09.020Z,98566.94
2023-10-23T04:23:40.836Z,98568.63
2023-10-23T04:26:09.400Z,98579.97
2023-10-23T04:28:40.242Z,98587.03
2023-10-23T04:31:07.512Z,98589.91
2023-10-23T04:33:35.037Z,98587.44
2023-10-23T04:36:03.671Z,98591.13
2023-10-23T04:38:33.160Z,98594.00
2023-10-23T04:41:00.985Z,98590.09
2023-10-23T04:43:28.230Z,98592.16
2023-10-23T04:45:58.514Z,98588.59
2023-10-23T04:48:26.164Z,98594.56
2023-10-23T04:50:59.882Z,98598.88
2023-10-23T04:53:28.571Z,98594.50
2023-10-23T04:55:55.961Z,98592.75
2023-10-23T04:58:23.057Z,98593.59
2023-10-23T05:00:50.562Z,98590.25
2023-10-23T05:03:17.641Z,98592.94
2023-10-23T05:05:49.375Z,98596.56
2023-10-23T05:08:16.718Z,98608.16
2023-10-23T05:10:44.434Z,98599.59
2023-10-23T05:13:11.821Z,98605.00
2023-10-23T05:15:39.250Z,98600.72
2023-10-23T05:18:06.714Z,98609.56
2023-10-23T05:20:37.758Z,98608.72
2023-10-23T05:23:04.930Z,98609.66
2023-10-23T05:25:32.228Z,98606.09
2023-10-23T05:27:59.823Z,98600.94
2023-10-23T05:30:28.038Z,98608.88
2023-10-23T05:32:55.170Z,98602.00
2023-10-23T05:35:22.364Z,98614.41
2023-10-23T05:37:49.619Z,98618.91
2023-10-23T05:40:16.921Z,98612.84
2023-10-23T05:42:44.054Z,98618.28
2023-10-23T05:45:12.487Z,98619.97
2023-10-23T05:47:39.514Z,98624.31
2023-10-23T05:50:07.519Z,98627.88
2023-10-23T05:52:34.573Z,98622.59
2023-10-23T05:55:05.796Z,98626.97
2023-10-23T05:57:33.089Z,98643.66
2023-10-23T06:00:00.542Z,98637.44
2023-10-23T06:02:28.468Z,98645.31
2023-10-23T06:04:55.855Z,98661.34
2023-10-23T06:07:23.009Z,98657.19
2023-10-23T06:09:50.243Z,98655.06
2023-10-23T06:12:17.338Z,98652.28
2023-10-23T06:14:44.615Z,98649.50
2023-10-23T06:17:11.657Z,98653.09
2023-10-23T06:19:39.181Z,98662.81
2023-10-23T06:22:06.476Z,98656.84
2023-10-23T06:24:33.868Z,98663.97
2023-10-23T06:27:00.889Z,98661.69
2023-10-23T06:29:28.348Z,98664.53
2023-10-23T06:31:57.406Z,98657.59
2023-10-23T06:34:24.784Z,98654.31
2023-10-23T06:36:51.770Z,98656.28
2023-10-23T06:39:19.122Z,98661.50
2023-10-23T06:41:46.088Z,98662.28
2023-10-23T06:44:14.998Z,98654.53
2023-10-23T06:46:42.194Z,98656.09
2023-10-23T06:49:09.593Z,98648.91
2023-10-23T06:51:37.715Z,98655.78
2023-10-23T06:54:08.268Z,98653.13
2023-10-23T06:56:35.299Z,98658.47
2023-10-23T06:59:02.575Z,98661.81
2023-10-23T07:01:41.659Z,98666.31
2023-10-23T07:04:12.246Z,98665.19
2023-10-23T07:06:39.371Z,98662.47
2023-10-23T07:09:06.853Z,98664.09
2023-10-23T07:11:33.987Z,98657.91
2023-10-23T07:14:01.239Z,98660.41
2023-10-23T07:16:28.461Z,98661.19
2023-10-23T07:18:55.970Z,98659.34
2023-10-23T07:21:27.050Z,98655.72
2023-10-23T07:23:55.659Z,98654.66
2023-10-23T07:26:22.688Z,98661.41
2023-10-23T07:28:50.051Z,98669.13
2023-10-23T07:31:18.263Z,98667.38
2023-10-23T07:33:45.615Z,98660.22
2023-10-23T07:36:14.700Z,98669.78
2023-10-23T07:38:44.940Z,98669.63
2023-10-23T07:41:15.422Z,98666.22
2023-10-23T07:43:44.045Z,98671.13
2023-10-23T07:46:17.216Z,98674.34
2023-10-23T07:48:47.103Z,98672.59
2023-10-23T07:51:15.235Z,98669.69
2023-10-23T07:53:43.304Z,98673.78
2023-10-23T07:56:13.973Z,98675.28
2023-10-23T07:58:41.917Z,98672.44
2023-10-23T08:01:12.454Z,98673.06
2023-10-23T08:03:40.186Z,98679.06
2023-10-23T08:06:10.490Z,98684.06
2023-10-23T08:08:40.840Z,98672.53
2023-10-23T08:11:12.184Z,98678.53
2023-10-23T08:13:41.348Z,98679.06
2023-10-23T08:16:08.652Z,98679.59
2023-10-23T08:18:39.893Z,98677.44
2023-10-23T08:21:17.082Z,98678.84
2023-10-23T08:23:47.902Z,98676.00
2023-10-23T08:26:15.621Z,98681.75
2023-10-23T08:31:29.181Z,98681.91
2023-10-23T08:33:57.640Z,98679.72
2023-10-23T08:36:24.937Z,98676.88
2023-10-23T08:38:52.329Z,98674.75
2023-10-23T08:41:19.740Z,98677.06
2023-10-23T08:43:47.364Z,98675.78
2023-10-23T08:46:15.393Z,98671.09
2023-10-23T08:48:43.059Z,98667.34
2023-10-23T08:51:10.057Z,98669.66
2023-10-23T08:54:09.371Z,98669.25
2023-10-23T08:56:42.107Z,98664.47
2023-10-23T08:59:15.601Z,98664.09
2023-10-23T09:01:43.204Z,98658.44
2023-10-23T09:04:12.522Z,98660.94
2023-10-23T09:06:40.872Z,98657.13
2023-10-23T09:09:08.449Z,98653.13
2023-10-23T09:11:39.822Z,98652.78
2023-10-23T09:14:07.093Z,98659.28
2023-10-23T09:16:34.384Z,98658.03
2023-10-23T09:19:01.993Z,98660.22
2023-10-23T09:21:29.070Z,98647.56
2023-10-23T09:24:04.707Z,98651.59
2023-10-23T09:26:32.028Z,98653.03
2023-10-23T09:28:59.455Z,98653.56
2023-10-23T09:31:26.467Z,98648.84
2023-10-23T09:33:56.272Z,98643.00
2023-10-23T09:36:27.221Z,98645.63
2023-10-23T09:39:00.538Z,98645.75
2023-10-23T09:41:29.272Z,98648.13
2023-10-23T09:43:58.826Z,98642.56
2023-10-23T09:46:30.428Z,98646.72
2023-10-23T09:49:04.861Z,98639.44
2023-10-23T09:51:40.907Z,98640.91
2023-10-23T09:54:21.391Z,98645.00
2023-10-23T09:56:52.065Z,98638.56
2023-10-23T09:59:28.496Z,98637.41
2023-10-23T10:02:02.366Z,98637.25
2023-10-23T10:04:53.846Z,98633.44
2023-10-23T10:07:30.976Z,98630.59
2023-10-23T10:09:59.835Z,98628.69
2023-10-23T10:12:29.081Z,98624.16
2023-10-23T10:14:58.551Z,98616.00
2023-10-23T10:17:28.944Z,98615.53
2023-10-23T10:20:03.141Z,98613.34
2023-10-23T10:22:36.436Z,98609.44
2023-10-23T10:25:07.675Z,98601.28
2023-10-23T10:27:34.763Z,98604.59
2023-10-23T10:30:07.979Z,98605.25
2023-10-23T10:34:19.945Z,98602.31
2023-10-23T10:35:41.486Z,98599.28
2023-10-23T10:38:14.302Z,98593.56
2023-10-23T10:40:58.333Z,98588.16
2023-10-23T10:43:30.304Z,98584.38
2023-10-23T10:45:58.025Z,98577.16
2023-10-23T10:48:29.023Z,98578.72
2023-10-23T10:50:56.721Z,98572.38
2023-10-23T10:53:26.629Z,98563.34
2023-10-23T10:55:54.499Z,98564.88
2023-10-23T10:58:23.295Z,98554.59
2023-10-23T11:00:51.567Z,98552.47
2023-10-23T11:03:19.346Z,98551.41
2023-10-23T11:05:48.200Z,98548.56
2023-10-23T11:08:15.447Z,98550.19
2023-10-23T11:10:42.903Z,98543.72
2023-10-23T11:13:15.744Z,98532.78
2023-10-23T11:15:43.477Z,98531.41
2023-10-23T11:18:10.888Z,98527.38
2023-10-23T11:20:40.346Z,98540.16
2023-10-23T11:23:09.014Z,98536.41
2023-10-23T11:25:37.319Z,98545.91
2023-10-23T11:28:07.255Z,98541.97
2023-10-23T11:30:47.492Z,98533.16
2023-10-23T11:33:16.666Z,98539.94
2023-10-23T11:35:44.122Z,98552.09
2023-10-23T11:38:22.028Z,98547.22
2023-10-23T11:40:49.688Z,98555.50
2023-10-23T11:43:17.352Z,98544.63
2023-10-23T11:45:48.366Z,98540.06
2023-10-23T11:48:15.535Z,98541.47
2023-10-23T11:50:43.703Z,98544.00
2023-10-23T11:53:10.991Z,98540.91
2023-10-23T11:55:39.549Z,98541.22
2023-10-23T11:58:06.752Z,98536.63
2023-10-23T12:00:36.451Z,98531.00
2023-10-23T12:03:06.023Z,98525.34
2023-10-23T12:05:34.137Z,98530.50
2023-10-23T12:08:01.369Z,98524.91
2023-10-23T12:10:29.448Z,98515.03
2023-10-23T12:12:57.445Z,98515.78
2023-10-23T12:15:25.205Z,98521.63
2023-10-23T12:17:52.779Z,98520.53
2023-10-23T12:20:23.351Z,98516.69
2023-10-23T12:22:52.872Z,98515.63
2023-10-23T12:25:20.463Z,98513.72
2023-10-23T12:27:47.547Z,98510.28
2023-10-23T12:30:23.912Z,98509.34
2023-10-23T12:33:15.522Z,98506.66
2023-10-23T12:35:44.904Z,98504.53
2023-10-23T12:38:12.982Z,98498.97
2023-10-23T12:40:42.653Z,98497.78
2023-10-23T12:43:11.689Z,98501.41
2023-10-23T12:45:39.096Z,98493.94
2023-10-23T12:48:06.306Z,98491.69
2023-10-23T12:50:33.976Z,98486.13
2023-10-23T12:53:01.054Z,98474.47
2023-10-23T12:55:28.375Z,98481.63
2023-10-23T12:57:55.420Z,98480.31
2023-10-23T13:00:22.751Z,98479.25
2023-10-23T13:02:49.825Z,98467.50
2023-10-23T13:05:18.025Z,98470.06
2023-10-23T13:07:45.155Z,98467.50
2023-10-23T13:10:12.637Z,98473.56
2023-10-23T13:12:39.787Z,98464.72
2023-10-23T13:15:09.718Z,98459.38
2023-10-23T13:17:37.008Z,98456.72
2023-10-23T13:21:28.948Z,98448.00
2023-10-23T13:22:56.404Z,98444.72
2023-10-23T13:25:23.949Z,98447.50
2023-10-23T13:27:51.000Z,98443.13
2023-10-23T13:30:18.327Z,98441.31
2023-10-23T13:32:45.300Z,98438.50
2023-10-23T13:35:15.856Z,98438.50
2023-10-23T13:37:42.997Z,98434.16
2023-10-23T13:40:10.638Z,98433.44
2023-10-23T13:42:38.725Z,98439.00
2023-10-23T13:45:07.142Z,98422.28
2023-10-23T13:47:34.101Z,98426.63
2023-10-23T13:50:01.421Z,98429.28
2023-10-23T13:52:28.600Z,98428.44
2023-10-23T13:54:57.818Z,98424.94
2023-10-23T13:57:26.448Z,98433.88
2023-10-23T13:59:53.780Z,98435.72
2023-10-23T14:02:20.925Z,98430.16
2023-10-23T14:04:49.564Z,98429.06
2023-10-23T14:07:16.764Z,98423.50
2023-10-23T14:09:47.411Z,98424.97
2023-10-23T14:12:17.230Z,98429.22
2023-10-23T14:14:55.759Z,98429.13
2023-10-23T14:17:22.656Z,98430.78
2023-10-23T14:19:49.946Z,98424.50
2023-10-23T14:22:18.039Z,98427.91
2023-10-23T14:24:45.544Z,98419.78
2023-10-23T14:27:12.589Z,98415.41
2023-10-23T14:29:40.266Z,98412.63
2023-10-23T14:32:07.766Z,98407.31
2023-10-23T14:34:36.457Z,98404.75
2023-10-23T14:37:04.076Z,98407.56
2023-10-23T14:39:31.379Z,98398.81
2023-10-23T14:41:58.393Z,98385.59
2023-10-23T14:44:25.865Z,98388.25
2023-10-23T14:46:54.020Z,98382.19
2023-10-23T14:49:23.148Z,98383.06
2023-10-23T14:51:54.061Z,98376.97
2023-10-23T14:54:21.925Z,98365.47
2023-10-23T14:56:51.208Z,98373.47
2023-10-23T14:59:18.970Z,98363.75
2023-10-23T15:01:46.162Z,98368.38
2023-10-23T15:04:13.761Z,98361.34
2023-10-23T15:06:40.973Z,98360.50
2023-10-23T15:09:08.252Z,98359.03
2023-10-23T15:11:35.233Z,98360.97
2023-10-23T15:14:02.601Z,98362.88
2023-10-23T15:16:33.849Z,98364.81
2023-10-23T15:19:04.127Z,98367.59
2023-10-23T15:21:31.782Z,98366.97
2023-10-23T15:23:59.741Z,98367.22
2023-10-23T15:26:27.874Z,98369.16
2023-10-23T15:28:55.303Z,98375.56
2023-10-23T15:31:22.487Z,98365.97
2023-10-23T15:33:49.872Z,98370.56
2023-10-23T15:36:16.904Z,98361.97
2023-10-23T15:38:44.194Z,98364.00
2023-10-23T15:41:15.130Z,98369.56
2023-10-23T15:43:48.815Z,98360.09
2023-10-23T15:46:16.926Z,98353.31
2023-10-23T15:48:45.626Z,98353.53
2023-10-23T15:51:13.222Z,98359.81
2023-10-23T15:53:40.732Z,98353.00
2023-10-23T15:56:09.104Z,98352.47
2023-10-23T15:58:36.750Z,98349.06
2023-10-23T16:01:05.547Z,98346.53
2023-10-23T16:03:36.928Z,98352.06
2023-10-23T16:06:09.852Z,98343.47
2023-10-23T16:08:38.244Z,98341.03
2023-10-23T16:11:06.155Z,98339.56
2023-10-23T16:13:38.086Z,98342.44
2023-10-23T16:16:14.349Z,98345.31
2023-10-23T16:18:44.743Z,98339.38
2023-10-23T16:21:16.104Z,98334.38
2023-10-23T16:23:44.137Z,98338.97
2023-10-23T16:26:11.676Z,98341.84
2023-10-23T16:28:40.124Z,98343.66
2023-10-23T16:31:09.810Z,98342.81
2023-10-23T16:33:37.379Z,98332.41
2023-10-23T16:36:04.632Z,98331.41
2023-10-23T16:38:31.963Z,98334.19
2023-10-23T16:40:59.318Z,98323.78
2023-10-23T16:43:27.580Z,98320.38
2023-10-23T16:45:54.713Z,98319.84
2023-10-23T16:48:22.194Z,98318.16
2023-10-23T16:50:49.180Z,98314.63
2023-10-23T16:53:18.151Z,98317.44
2023-10-23T16:55:52.561Z,98315.09
2023-10-23T16:58:24.561Z,98308.06
2023-10-23T17:00:53.550Z,98308.19
2023-10-23T17:03:21.879Z,98305.50
2023-10-23T17:05:49.153Z,98314.59
2023-10-23T17:08:16.384Z,98311.19
2023-10-23T17:10:43.405Z,98312.75
2023-10-23T17:13:10.612Z,98316.38
2023-10-23T17:15:43.572Z,98303.31
2023-10-23T17:18:10.844Z,98294.56
2023-10-23T17:20:42.880Z,98300.97
2023-10-23T17:23:10.410Z,98292.25
2023-10-23T17:25:42.030Z,98290.56
2023-10-23T17:28:09.496Z,98299.47
2023-10-23T17:30:38.222Z,98292.59
2023-10-23T17:33:07.682Z,98292.06
2023-10-23T17:35:36.286Z,98293.13
2023-10-23T17:38:04.168Z,98296.97
2023-10-23T17:40:37.095Z,98293.47
2023-10-23T17:43:05.198Z,98303.22
2023-10-23T17:45:34.647Z,98302.50
2023-10-23T17:48:02.463Z,98307.19
2023-10-23T17:50:37.481Z,98291.53
2023-10-23T17:53:06.284Z,98290.03
2023-10-23T17:55:34.485Z,98284.09
2023-10-23T17:58:01.975Z,98279.09
2023-10-23T18:00:29.534Z,98278.34
2023-10-23T18:02:57.339Z,98269.84
2023-10-23T18:05:25.572Z,98274.31
2023-10-23T18:07:59.371Z,98268.88
2023-10-23T18:10:26.429Z,98269.34
2023-10-23T18:12:54.909Z,98261.78
2023-10-23T18:15:23.808Z,98261.03
2023-10-23T18:17:53.656Z,98256.66
2023-10-23T18:20:21.003Z,98267.94
2023-10-23T18:22:48.568Z,98267.09
2023-10-23T18:25:15.781Z,98268.03
2023-10-23T18:27:43.321Z,98271.56
2023-10-23T18:30:13.621Z,98266.47
2023-10-23T18:32:42.246Z,98271.13
2023-10-23T18:35:09.884Z,98259.00
2023-10-23T18:37:37.251Z,98266.13
2023-10-23T18:40:08.588Z,98253.69
2023-10-23T18:42:37.457Z,98248.38
2023-10-23T18:45:08.680Z,98259.25
2023-10-23T18:47:36.697Z,98249.56
2023-10-23T18:50:07.327Z,98240.66
2023-10-23T18:52:34.997Z,98239.03
2023-10-23T18:55:02.145Z,98238.00
2023-10-23T18:57:29.785Z,98236.06
2023-10-23T18:59:59.078Z,98239.66
2023-10-23T19:02:26.446Z,98243.16
2023-10-23T19:04:53.649Z,98235.09
2023-10-23T19:07:21.655Z,98234.16
2023-10-23T19:09:48.729Z,98235.88
2023-10-23T19:12:16.174Z,98249.16
2023-10-23T19:14:43.359Z,98248.16
2023-10-23T19:17:18.776Z,98241.06
2023-10-23T19:19:52.082Z,98230.66
2023-10-23T19:22:19.443Z,98217.69
2023-10-23T19:24:46.473Z,98211.63
2023-10-23T19:27:13.980Z,98203.78
2023-10-23T19:29:41.200Z,98210.03
2023-10-23T19:32:09.725Z,98212.56
2023-10-23T19:34:37.105Z,98209.81
2023-10-23T19:37:05.092Z,98217.69
2023-10-23T19:39:32.335Z,98205.34
2023-10-23T19:42:03.237Z,98201.22
2023-10-23T19:44:30.678Z,98202.06
2023-10-23T19:46:58.527Z,98200.28
2023-10-23T19:49:26.598Z,98203.78
2023-10-23T19:51:56.726Z,98200.28
2023-10-23T19:54:38.375Z,98190.59
2023-10-23T19:57:11.242Z,98200.38
2023-10-23T19:59:39.319Z,98195.16
2023-10-23T20:02:07.122Z,98185.38
2023-10-23T20:04:34.261Z,98182.84
2023-10-23T20:07:01.680Z,98192.50
2023-10-23T20:09:28.774Z,98185.50
2023-10-23T20:11:56.183Z,98182.84
2023-10-23T20:14:23.627Z,98180.38
2023-10-23T20:16:50.893Z,98177.72
2023-10-23T20:19:20.507Z,98177.72
2023-10-23T20:21:48.256Z,98183.03
2023-10-23T20:24:15.756Z,98177.84
2023-10-23T20:26:43.611Z,98175.41
2023-10-23T20:29:10.921Z,98174.84
2023-10-23T20:31:38.410Z,98178.38
2023-10-23T20:34:05.638Z,98183.69
2023-10-23T20:36:33.973Z,98184.75
2023-10-23T20:39:01.249Z,98178.59
2023-10-23T20:41:28.681Z,98181.34
2023-10-23T20:43:55.683Z,98185.94
2023-10-23T20:46:23.172Z,98178.06
2023-10-23T20:48:50.507Z,98169.38
2023-10-23T20:51:17.992Z,98160.66
2023-10-23T20:53:44.997Z,98164.47
2023-10-23T20:56:12.262Z,98160.34
2023-10-23T20:58:39.299Z,98166.59
2023-10-23T21:01:08.700Z,98163.94
2023-10-23T21:03:37.205Z,98172.75
2023-10-23T21:06:06.288Z,98164.13
2023-10-23T21:08:40.779Z,98168.59
2023-10-23T21:11:08.702Z,98173.06
2023-10-23T21:13:36.491Z,98161.69
2023-10-23T21:16:06.944Z,98167.09
2023-10-23T21:18:34.286Z,98162.75
2023-10-23T21:21:01.903Z,98159.47
2023-10-23T21:23:30.244Z,98149.69
2023-10-23T21:25:58.139Z,98147.34
2023-10-23T21:28:28.289Z,98152.03
2023-10-23T21:30:55.729Z,98151.09
2023-10-23T21:33:23.034Z,98165.19
2023-10-23T21:35:52.544Z,98156.28
2023-10-23T21:38:20.906Z,98153.84
2023-10-23T21:40:48.981Z,98159.97
2023-10-23T21:43:16.341Z,98160.72
2023-10-23T21:45:43.818Z,98154.56
2023-10-23T21:48:11.962Z,98139.06
2023-10-23T21:50:44.891Z,98125.22
2023-10-23T21:53:12.922Z,98120.81
2023-10-23T21:55:42.361Z,98125.22
2023-10-23T21:58:09.878Z,98126.78
2023-10-23T22:00:39.172Z,98131.09
2023-10-23T22:03:06.448Z,98124.84
2023-10-23T22:05:34.095Z,98125.50
2023-10-23T22:08:01.288Z,98118.25
2023-10-23T22:10:29.361Z,98098.22
2023-10-23T22:12:58.066Z,98106.19
2023-10-23T22:15:25.534Z,98103.41
2023-10-23T22:17:54.095Z,98103.53
2023-10-23T22:20:21.860Z,98106.81
2023-10-23T22:22:48.958Z,98112.13
2023-10-23T22:25:16.606Z,98109.13
2023-10-23T22:27:43.761Z,98117.09
2023-10-23T22:30:12.161Z,98104.56
2023-10-23T22:32:39.460Z,98099.25
2023-10-23T22:35:07.197Z,98106.28
2023-10-23T22:38:02.085Z,98110.84
2023-10-23T22:40:25.039Z,98117.09
2023-10-23T22:42:52.806Z,98100.44
2023-10-23T22:45:20.276Z,98094.38
2023-10-23T22:47:47.194Z,98100.50
2023-10-23T22:50:14.996Z,98103.09
2023-10-23T22:52:43.692Z,98098.69
2023-10-23T22:55:12.352Z,98093.53
2023-10-23T22:57:40.980Z,98095.31
2023-10-23T23:00:10.846Z,98091.81
2023-10-23T23:02:39.466Z,98093.72
2023-10-23T23:05:08.211Z,98091.81
2023-10-23T23:07:41.235Z,98080.66
2023-10-23T23:10:13.718Z,98077.69
2023-10-23T23:12:41.471Z,98077.06
2023-10-23T23:15:09.532Z,98084.47
2023-10-23T23:17:40.569Z,98089.56
2023-10-23T23:20:12.757Z,98085.09
2023-10-23T23:22:40.567Z,98086.16
2023-10-23T23:25:10.006Z,98086.28
2023-10-23T23:27:37.076Z,98097.00
2023-10-23T23:30:04.992Z,98097.94
2023-10-23T23:32:32.132Z,98096.56
2023-10-23T23:34:59.457Z,98083.28
2023-10-23T23:37:26.484Z,98085.75
2023-10-23T23:39:53.686Z,98089.13
2023-10-23T23:42:20.673Z,98071.44
2023-10-23T23:44:47.940Z,98075.88
2023-10-23T23:47:14.938Z,98079.59
2023-10-23T23:49:42.281Z,98073.41
2023-10-23T23:52:09.983Z,98068.75
2023-10-23T23:54:37.219Z,98068.75
2023-10-23T23:57:04.294Z,98071.22
2023-10-23T23:59:31.545Z,98065.16
